Station: Waratah (Tfs)  

  Atmospheric Gas Attenuation - ITU Rec 676-11   ----------------- dB/100km -----------------
Date Time Temp RH % AH g/m3 Dew Point Wind Direction Speed kph Gust kph Barometer mB Rainfall Since 9am 24GHz 47GHz 76GHz 122GHz 134GHz 241GHz
08/05 12:20 7.8 95 7.76 7 13 17 1013.1 1.4 18.1 26.3 39.3 103.2 94.5 324.1
08/05 12:10 7.8 95 7.76 7 13 17 1013.1 1.2 18.1 26.3 39.3 103.2 94.5 324.1
08/05 12:00 7.8 94 7.67 6.9 19 24 1013.1 0.8 17.9 26.1 39.0 102.2 93.3 319.7
08/05 11:50 7.7 94 7.63 6.8 20 28 1013.1 0.6 17.8 26.1 38.8 101.8 92.8 318.2
08/05 11:40 7.5 95 7.61 6.7 11 15 1013.1 0.6 17.8 26.1 38.9 101.9 92.8 318.0
08/05 11:30 7.4 94 7.48 6.5 11 17 1013.1 0.4 17.5 25.9 38.4 100.5 91.1 312.1
08/05 11:20 7.4 94 7.48 6.5 13 19 1013.1 0.4 17.5 25.9 38.4 100.5 91.1 312.1
08/05 11:10 7.3 94 7.43 6.4 17 28 1013.1 0.4 17.4 25.9 38.2 100.1 90.5 310.1
08/05 11:00 7.3 93 7.35 6.3 17 22 1013.1 0.2 17.2 25.7 37.9 99.2 89.4 306.2
08/05 10:50 7.3 93 7.35 6.3 15 19 1013.1 0.2 17.2 25.7 37.9 99.2 89.4 306.2
08/05 10:40 7.3 93 7.35 6.2 20 28 1013.1 0.2 17.2 25.7 37.9 99.2 89.4 306.2
08/05 10:30 7.2 93 7.3 6.2 19 26 1013.1 0.2 17.1 25.7 37.7 98.8 88.9 304.2
08/05 10:20 7.1 93 7.26 6 22 30 1013.1 0.2 17.0 25.6 37.6 98.5 88.4 302.7
08/05 10:10 7 93 7.21 5.9 26 30 1013.1 0.2 16.9 25.6 37.4 98.0 87.9 300.6
08/05 10:00 7.1 92 7.18 5.9 24 32 1013.1 0.2 16.8 25.5 37.2 97.6 87.3 298.8
08/05 09:50 6.9 93 7.16 5.9 20 28 1013.1 0 16.8 25.5 37.3 97.6 87.3 298.6
08/05 09:40 6.9 93 7.16 5.8 22 26 1013.1 0 16.8 25.5 37.3 97.6 87.3 298.6
08/05 09:30 7 90 6.98 5.5 20 26 1013.1 0 16.4 25.2 36.5 95.5 84.7 289.6
08/05 09:20 6.8 92 7.04 5.6 20 24 1013.1 0 16.6 25.3 36.8 96.4 85.7 293.2
08/05 09:10 6.6 94 7.1 5.7 19 28 1013.1 0 16.7 25.5 37.1 97.3 86.8 296.9
08/05 09:00 6.6 94 7.1 5.7 17 33 1013.1 21.8 16.7 25.5 37.1 97.3 86.8 296.9
08/05 08:50 6.5 93 6.98 5.5 17 22 1013.1 21.8 16.4 25.3 36.7 96.1 85.3 291.5
08/05 08:40 6.4 93 6.93 5.3 22 30 1013.1 21.8 16.3 25.3 36.5 95.7 84.7 289.4
08/05 08:30 6.3 93 6.89 5.3 26 37 1013.1 21.8 16.3 25.2 36.4 95.3 84.2 287.9
08/05 08:20 6.4 91 6.78 5.1 28 35 1013.1 21.6 16.0 25.0 35.9 94.0 82.6 282.3
08/05 08:10 6.4 91 6.78 5 30 43 1013.1 21.6 16.0 25.0 35.9 94.0 82.6 282.3
08/05 08:00 6.3 91 6.74 5 33 43 1013.1 21.6 15.9 25.0 35.8 93.7 82.2 280.7
08/05 07:50 6.2 93 6.84 5.2 32 39 1013.1 21.6 16.1 25.2 36.2 94.9 83.7 285.9
08/05 07:40 6.2 92 6.77 5 32 39 1013.1 21.6 16.0 25.1 36.0 94.1 82.7 282.5
08/05 07:30 6.1 93 6.8 5.1 30 37 1013.1 21.6 16.1 25.1 36.1 94.6 83.2 284.3
08/05 07:20 6.1 92 6.73 4.9 32 35 1013.1 21.6 15.9 25.0 35.8 93.8 82.3 280.9
08/05 07:10 6 92 6.68 4.8 33 39 1013.1 21.6 15.8 25.0 35.7 93.4 81.7 278.9
08/05 07:00 6 94 6.83 5.1 26 37 1013.1 21.6 16.1 25.2 36.3 95.0 83.7 286.1
08/05 06:50 6 93 6.75 5 28 41 1013.1 21.6 16.0 25.1 36.0 94.1 82.6 282.3
08/05 06:40 6 93 6.75 5 28 35 1013.1 21.6 16.0 25.1 36.0 94.1 82.6 282.3
08/05 06:30 6 95 6.9 5.2 24 28 1013.1 21.6 16.3 25.3 36.6 95.8 84.7 289.5
08/05 06:20 6 94 6.83 5.1 26 30 1013.1 21.6 16.1 25.2 36.3 95.0 83.7 286.1
08/05 06:10 6 93 6.75 5 26 33 1013.1 21.6 16.0 25.1 36.0 94.1 82.6 282.3
08/05 06:00 6.1 95 6.94 5.3 24 32 1013.1 21.6 16.4 25.4 36.7 96.1 85.1 291.0
08/05 05:50 6.2 95 6.99 5.4 28 39 1013.1 21.6 16.5 25.4 36.9 96.6 85.7 293.1
08/05 05:40 6.1 95 6.94 5.4 22 32 1013.1 21.4 16.4 25.4 36.7 96.1 85.1 291.0
08/05 05:30 6.1 95 6.94 5.4 26 32 1013.1 21.4 16.4 25.4 36.7 96.1 85.1 291.0
08/05 05:20 6.2 94 6.92 5.3 28 32 1013.1 21.4 16.3 25.3 36.6 95.8 84.8 289.7
08/05 05:10 6.3 93 6.89 5.2 28 41 1013.1 21.4 16.3 25.2 36.4 95.3 84.2 287.9
08/05 05:00 6.3 94 6.96 5.4 33 44 1013.1 21.4 16.4 25.3 36.7 96.1 85.2 291.3
08/05 04:50 6.4 94 7.01 5.5 28 41 1013.1 21.4 16.5 25.4 36.9 96.6 85.8 293.3
08/05 04:40 6.4 95 7.08 5.6 26 35 1013.1 21.2 16.7 25.5 37.2 97.3 86.7 296.7
08/05 04:30 6.3 94 6.96 5.4 28 33 1013.1 21.2 16.4 25.3 36.7 96.1 85.2 291.3
08/05 04:20 6.3 93 6.89 5.3 33 44 1013.1 21.2 16.3 25.2 36.4 95.3 84.2 287.9
08/05 04:10 6.5 94 7.05 5.6 26 43 1013.1 21.2 16.6 25.4 37.0 96.9 86.2 294.8
08/05 04:00 6.5 94 7.05 5.6 28 33 1013.1 20.8 16.6 25.4 37.0 96.9 86.2 294.8
08/05 03:50 6.5 95 7.13 5.7 28 39 1013.1 20.8 16.8 25.6 37.3 97.8 87.3 298.7
08/05 03:40 6.5 95 7.13 5.7 24 30 1013.1 20.6 16.8 25.6 37.3 97.8 87.3 298.7
08/05 03:30 6.6 94 7.1 5.7 28 37 1013.1 20.6 16.7 25.5 37.1 97.3 86.8 296.9
08/05 03:20 6.6 95 7.18 5.8 24 30 1013.1 20.6 16.9 25.6 37.5 98.2 87.9 300.7
08/05 03:10 6.8 95 7.27 6 24 30 1013.1 20.6 17.1 25.7 37.8 99.0 88.9 304.3
08/05 03:00 7 94 7.29 6.1 26 32 1013.1 20.4 17.1 25.7 37.8 98.9 89.0 304.5
08/05 02:50 7 93 7.21 6 28 35 1013.1 20 16.9 25.6 37.4 98.0 87.9 300.6
08/05 02:40 7 93 7.21 6 30 39 1013.1 20 16.9 25.6 37.4 98.0 87.9 300.6
08/05 02:30 7 93 7.21 5.9 26 32 1013.1 20 16.9 25.6 37.4 98.0 87.9 300.6
08/05 02:20 7.1 91 7.1 5.8 24 32 1013.1 20 16.7 25.4 36.9 96.7 86.2 295.0
08/05 02:10 7.2 91 7.15 5.9 28 35 1013.1 20 16.8 25.4 37.1 97.1 86.8 297.0
08/05 02:00 7.3 90 7.11 5.8 32 37 1013.1 20 16.7 25.3 36.9 96.5 86.1 294.7
08/05 01:50 7.4 91 7.24 6 33 41 1013.1 20 17.0 25.5 37.4 97.9 87.8 300.5
08/05 01:40 7.5 93 7.45 6.4 33 43 1013.1 20 17.4 25.8 38.2 100.1 90.6 310.3
08/05 01:30 7.7 93 7.54 6.7 30 43 1013.1 19.8 17.6 25.9 38.5 100.8 91.6 313.8
08/05 01:20 7.8 94 7.67 6.9 24 28 1013.1 19.8 17.9 26.1 39.0 102.2 93.3 319.7
08/05 01:10 7.8 94 7.67 6.9 28 39 1013.1 19.4 17.9 26.1 39.0 102.2 93.3 319.7
08/05 01:00 7.8 94 7.67 6.9 28 33 1013.1 19.4 17.9 26.1 39.0 102.2 93.3 319.7
08/05 00:50 7.9 93 7.64 6.9 26 30 1013.1 19.4 17.8 26.0 38.8 101.7 92.7 317.8
08/05 00:40 8 91 7.53 6.7 33 35 1013.1 19 17.6 25.8 38.3 100.3 91.1 312.1
08/05 00:30 7.9 93 7.64 6.9 26 35 1013.1 19 17.8 26.0 38.8 101.7 92.7 317.8
08/05 00:20 8 93 7.69 6.9 30 37 1013.1 19 17.9 26.1 38.9 102.1 93.3 319.8
08/05 00:10 8.1 93 7.74 7 28 33 1013.1 18.6 18.0 26.1 39.1 102.5 93.9 321.8
08/05 00:00 8.1 93 7.74 7 32 37 1013.1 18.6 18.0 26.1 39.1 102.5 93.9 321.8
07/05 23:50 8.1 93 7.74 7.1 32 35 1013.1 18.6 18.0 26.1 39.1 102.5 93.9 321.8
07/05 23:40 8.2 94 7.88 7.3 30 35 1013.1 18.4 18.3 26.3 39.6 104.0 95.7 328.2
07/05 23:30 8.3 95 8.01 7.6 24 33 1013.1 18.4 18.6 26.5 40.1 105.3 97.4 334.1
07/05 23:20 8.3 95 8.01 7.5 20 26 1013.1 18.2 18.6 26.5 40.1 105.3 97.4 334.1
07/05 23:10 8.4 94 7.98 7.5 30 39 1013.1 18 18.5 26.5 40.0 104.8 96.8 332.2
07/05 23:00 8.4 97 8.23 7.9 20 26 1013.1 17.6 19.1 26.9 41.0 107.7 100.3 344.5
07/05 22:50 8.4 96 8.15 7.8 19 24 1013.1 17.2 18.9 26.7 40.7 106.8 99.2 340.5
07/05 22:40 8.4 96 8.15 7.8 20 24 1013.1 17 18.9 26.7 40.7 106.8 99.2 340.5
07/05 22:30 8.3 96 8.09 7.7 17 22 1013.1 16.6 18.8 26.7 40.5 106.2 98.5 338.0
07/05 22:20 8.4 95 8.06 7.7 20 28 1013.1 16.6 18.7 26.6 40.3 105.7 97.9 336.1
07/05 22:10 8.3 96 8.09 7.7 22 26 1013.1 16.4 18.8 26.7 40.5 106.2 98.5 338.0
07/05 22:00 8.2 97 8.13 7.7 24 28 1013.1 16.2 18.8 26.8 40.7 106.8 99.2 340.4
07/05 21:50 8.1 97 8.07 7.6 22 28 1013.1 15.6 18.7 26.7 40.5 106.3 98.5 337.9
07/05 21:40 8 97 8.02 7.5 20 24 1013.1 15.2 18.6 26.6 40.3 105.8 97.9 335.9
07/05 21:30 7.8 97 7.92 7.3 17 20 1013.1 15 18.4 26.5 40.0 105.0 96.7 331.9
07/05 21:20 7.8 96 7.84 7.2 17 20 1013.1 14.4 18.2 26.4 39.7 104.1 95.6 328.0
07/05 21:10 7.8 95 7.76 7.1 17 20 1013.1 14 18.1 26.3 39.3 103.2 94.5 324.1
07/05 21:00 7.8 95 7.76 7.1 22 30 1013.1 13.8 18.1 26.3 39.3 103.2 94.5 324.1
07/05 20:50 7.7 97 7.87 7.2 22 28 1013.1 13.4 18.3 26.5 39.9 104.5 96.2 329.9
07/05 20:40 7.6 97 7.82 7.1 19 24 1013.1 13 18.2 26.4 39.7 104.1 95.6 327.8
07/05 20:30 7.5 97 7.77 7 20 26 1013.1 12.6 18.1 26.4 39.5 103.7 95.0 325.8
07/05 20:20 7.5 97 7.77 7 22 28 1013.1 12.4 18.1 26.4 39.5 103.7 95.0 325.8
07/05 20:10 7.4 97 7.72 6.9 22 26 1013.1 12.2 18.0 26.3 39.4 103.2 94.4 323.8
07/05 20:00 7.2 97 7.62 6.8 24 28 1013.1 12 17.8 26.2 39.0 102.4 93.3 319.7
07/05 19:50 6.9 98 7.55 6.6 20 24 1013.1 11.8 17.7 26.2 38.9 102.0 92.7 317.5

Last Refresh: 08-May-2026 12:07:15

Bureau of Meteorology